Evansdale, Iowa
Current Conditions -  °F | °C
As of 1:54 AM on Friday 31 Oct 2014 (Local Time) from KALO Reporting Station
Broken Clouds Broken Clouds  
Wind Chill: 28°   Ceiling: 4600
Heat Index: 39°   Visibility: 10mi
Dew Point: 23°   Wind: 26mph
Humidity: 53%   Direction: 360°N
Pressure: 30.25"   Gusts: 37mph
Location:  42.47°N, 92.28°W
Report Text: KALO 310654Z 36023G32KT 10SM BKN046 04/M05 A3025 RMK AO2 PK WND 35034/0600 SLP247 T00391050
Loading
Personal Weather Stations






























Interactive Weather Map
Tropical Storm Tracking
New forecast layout! Learn more

10-Day Weather Forecast

Advertisements
Track Severe Weather on mobile